Time;durP1;ratioP1;P1;durP2;ratioP2;P2;SDS_P1;SDS_P2;PMS_P1;PMS_P2;Temp;Humidity;BMP_temperature;BMP_pressure;BME280_temperature;BME280_humidity;BME280_pressure;Samples;Min_cycle;Max_cycle;Signal;HPM_P1;HPM_P2
2023/02/08 00:01:20;;;;;;;11.88;7.07;;;;;;;;;;5069922;28;20211;-79
2023/02/08 00:03:47;;;;;;;11.55;6.70;;;;;;;;;;5038470;28;20201;-79
2023/02/08 00:06:13;;;;;;;11.30;6.72;;;;;;;;;;5037724;28;20546;-78
2023/02/08 00:08:40;;;;;;;9.32;6.70;;;;;;;;;;5069815;28;20204;-79
2023/02/08 00:11:09;;;;;;;12.90;7.90;;;;;;;;;;5038029;28;20174;-79
2023/02/08 00:13:35;;;;;;;14.80;7.75;;;;;;;;;;5069574;28;20505;-79
2023/02/08 00:16:01;;;;;;;11.07;7.45;;;;;;;;;;5070299;28;20178;-79
2023/02/08 00:18:27;;;;;;;9.10;6.75;;;;;;;;;;5086355;28;20186;-79
2023/02/08 00:20:54;;;;;;;14.32;7.53;;;;;;;;;;5069703;28;20180;-79
2023/02/08 00:23:20;;;;;;;14.50;8.20;;;;;;;;;;5038130;28;20193;-79
2023/02/08 00:25:46;;;;;;;14.27;8.27;;;;;;;;;;5036905;28;20186;-79
2023/02/08 00:28:13;;;;;;;12.93;7.38;;;;;;;;;;5069860;28;20186;-79
2023/02/08 00:30:40;;;;;;;13.18;8.43;;;;;;;;;;5069881;28;20213;-79
2023/02/08 00:33:06;;;;;;;12.05;8.20;;;;;;;;;;5037813;28;20175;-79
2023/02/08 00:35:32;;;;;;;13.27;8.40;;;;;;;;;;5037217;28;20174;-79
2023/02/08 00:37:58;;;;;;;12.48;8.68;;;;;;;;;;5069357;28;20685;-79
2023/02/08 00:40:25;;;;;;;13.35;9.20;;;;;;;;;;5037659;28;20194;-79
2023/02/08 00:42:51;;;;;;;18.65;10.32;;;;;;;;;;5069248;28;20227;-79
2023/02/08 00:45:17;;;;;;;14.43;9.10;;;;;;;;;;5037017;28;20202;-84
2023/02/08 00:47:43;;;;;;;14.18;9.55;;;;;;;;;;5037227;28;20182;-79
2023/02/08 00:50:10;;;;;;;14.88;9.70;;;;;;;;;;5068991;28;20213;-78
2023/02/08 00:52:36;;;;;;;13.23;9.10;;;;;;;;;;5036812;28;20170;-79
2023/02/08 00:55:02;;;;;;;16.63;8.98;;;;;;;;;;5037214;28;20242;-78
2023/02/08 00:57:28;;;;;;;12.15;8.90;;;;;;;;;;5068195;28;20233;-78
2023/02/08 00:59:54;;;;;;;14.60;9.02;;;;;;;;;;5037034;28;20189;-78
2023/02/08 01:02:20;;;;;;;17.60;9.93;;;;;;;;;;5069012;28;20178;-78
2023/02/08 01:04:46;;;;;;;16.23;10.50;;;;;;;;;;5085743;28;20238;-78
2023/02/08 01:07:12;;;;;;;13.80;9.10;;;;;;;;;;5036733;28;20197;-78
2023/02/08 01:09:38;;;;;;;18.08;9.88;;;;;;;;;;5036651;28;20971;-78
2023/02/08 01:12:04;;;;;;;16.42;9.32;;;;;;;;;;5069329;28;20191;-78
2023/02/08 01:14:30;;;;;;;16.98;10.20;;;;;;;;;;5036481;28;20190;-78
2023/02/08 01:16:56;;;;;;;14.50;9.23;;;;;;;;;;5037031;28;20200;-78
2023/02/08 01:19:22;;;;;;;16.20;9.88;;;;;;;;;;5036089;28;20166;-78
2023/02/08 01:21:48;;;;;;;13.48;8.82;;;;;;;;;;5037081;28;20177;-78
2023/02/08 01:24:14;;;;;;;20.70;9.63;;;;;;;;;;5069160;28;20205;-78
2023/02/08 01:26:40;;;;;;;11.52;9.25;;;;;;;;;;5036712;28;20174;-78
2023/02/08 01:29:07;;;;;;;12.27;9.23;;;;;;;;;;5085489;28;20227;-78
2023/02/08 01:31:37;;;;;;;11.95;8.65;;;;;;;;;;5068817;28;20185;-78
2023/02/08 01:34:03;;;;;;;14.88;9.90;;;;;;;;;;5068604;28;20592;-77
2023/02/08 01:36:30;;;;;;;18.83;9.82;;;;;;;;;;5036572;28;20182;-79
2023/02/08 01:38:56;;;;;;;16.35;11.07;;;;;;;;;;5069007;28;20181;-78
2023/02/08 01:41:23;;;;;;;14.73;9.27;;;;;;;;;;5036374;28;20180;-78
2023/02/08 01:44:08;;;;;;;19.65;11.98;;;;;;;;;;5068667;28;20226;-78
2023/02/08 01:46:52;;;;;;;12.57;9.30;;;;;;;;;;5036522;28;20189;-78
2023/02/08 01:49:21;;;;;;;18.35;10.45;;;;;;;;;;5036663;28;20210;-77
2023/02/08 01:51:49;;;;;;;16.85;9.10;;;;;;;;;;5036925;28;20169;-78
2023/02/08 01:54:17;;;;;;;15.68;9.45;;;;;;;;;;5069123;28;20277;-78
2023/02/08 01:56:44;;;;;;;15.25;9.15;;;;;;;;;;5036779;28;20563;-78
2023/02/08 01:59:19;;;;;;;17.33;8.52;;;;;;;;;;5036785;28;20204;-78
2023/02/08 02:01:46;;;;;;;15.73;9.75;;;;;;;;;;5036186;28;20244;-78
2023/02/08 02:04:12;;;;;;;19.50;10.65;;;;;;;;;;5036440;28;20216;-78
2023/02/08 02:06:42;;;;;;;15.32;9.13;;;;;;;;;;5036231;28;20192;-78
2023/02/08 02:09:26;;;;;;;13.80;9.90;;;;;;;;;;5037415;28;20177;-78
2023/02/08 02:11:53;;;;;;;18.73;9.85;;;;;;;;;;5040163;28;20535;-78
2023/02/08 02:14:19;;;;;;;16.10;9.98;;;;;;;;;;5039962;28;20255;-78
2023/02/08 02:16:45;;;;;;;16.67;9.23;;;;;;;;;;5039728;28;20650;-78
2023/02/08 02:19:17;;;;;;;15.00;9.90;;;;;;;;;;5040261;28;20178;-78
2023/02/08 02:21:48;;;;;;;14.25;9.18;;;;;;;;;;5072166;28;20171;-78
2023/02/08 02:24:34;;;;;;;19.38;10.68;;;;;;;;;;5040253;28;20227;-78
2023/02/08 02:27:03;;;;;;;17.38;10.48;;;;;;;;;;5072548;28;20177;-78
2023/02/08 02:29:29;;;;;;;15.15;10.30;;;;;;;;;;5039640;28;20206;-78
2023/02/08 02:32:11;;;;;;;20.10;10.88;;;;;;;;;;5072152;28;20181;-78
2023/02/08 02:34:51;;;;;;;16.85;10.35;;;;;;;;;;5039887;28;20204;-78
2023/02/08 02:37:36;;;;;;;15.38;9.57;;;;;;;;;;5041046;28;20170;-78
2023/02/08 02:40:11;;;;;;;15.40;10.18;;;;;;;;;;5072222;28;20177;-78
2023/02/08 02:45:42;;;;;;;16.08;10.05;;;;;;;;;;5039342;28;20240;-78
2023/02/08 02:48:09;;;;;;;18.25;10.85;;;;;;;;;;5039889;28;20195;-78
2023/02/08 02:50:47;;;;;;;16.02;10.00;;;;;;;;;;5039537;28;20172;-78
2023/02/08 02:53:22;;;;;;;17.17;10.57;;;;;;;;;;5039663;28;20177;-78
2023/02/08 02:55:50;;;;;;;18.73;11.10;;;;;;;;;;5039688;28;20175;-79
2023/02/08 02:58:19;;;;;;;16.45;11.40;;;;;;;;;;5040082;28;20181;-79
2023/02/08 03:00:51;;;;;;;15.30;10.32;;;;;;;;;;5072669;28;21034;-80
2023/02/08 03:03:20;;;;;;;17.02;10.48;;;;;;;;;;5040179;28;20224;-79
2023/02/08 03:05:46;;;;;;;15.15;10.00;;;;;;;;;;5071541;28;20212;-79
2023/02/08 03:08:41;;;;;;;19.45;9.98;;;;;;;;;;5039538;28;20255;-79
2023/02/08 03:11:22;;;;;;;21.90;9.43;;;;;;;;;;5035152;28;20586;-79
2023/02/08 03:13:59;;;;;;;12.27;8.57;;;;;;;;;;5039274;28;20170;-79
2023/02/08 03:16:38;;;;;;;14.50;10.45;;;;;;;;;;5039760;28;20162;-78
2023/02/08 03:19:04;;;;;;;14.85;10.07;;;;;;;;;;5039510;28;20219;-79
2023/02/08 03:21:42;;;;;;;17.70;10.73;;;;;;;;;;5038346;28;20177;-79
2023/02/08 03:24:14;;;;;;;19.15;10.35;;;;;;;;;;5038941;28;20197;-79
2023/02/08 03:26:53;;;;;;;14.68;10.23;;;;;;;;;;5039143;28;20180;-79
2023/02/08 03:29:19;;;;;;;18.42;10.45;;;;;;;;;;5039436;28;20181;-79
2023/02/08 03:31:47;;;;;;;17.30;9.95;;;;;;;;;;5038815;28;20184;-79
2023/02/08 03:34:25;;;;;;;17.10;10.23;;;;;;;;;;5071559;28;20561;-79
2023/02/08 03:37:13;;;;;;;16.52;10.23;;;;;;;;;;5070738;28;20181;-79
2023/02/08 03:39:40;;;;;;;17.17;10.20;;;;;;;;;;5039447;28;20171;-79
2023/02/08 03:42:09;;;;;;;16.77;11.38;;;;;;;;;;5055482;28;20590;-78
2023/02/08 03:44:38;;;;;;;17.33;11.20;;;;;;;;;;5039530;28;20216;-79
2023/02/08 03:47:30;;;;;;;17.48;10.63;;;;;;;;;;5071295;28;20185;-79
2023/02/08 03:49:58;;;;;;;17.65;10.27;;;;;;;;;;5035248;28;20201;-79
2023/02/08 03:52:25;;;;;;;17.30;11.35;;;;;;;;;;5038773;28;20180;-79
2023/02/08 03:55:00;;;;;;;18.13;10.75;;;;;;;;;;5039018;28;20174;-79
2023/02/08 03:57:28;;;;;;;18.33;11.43;;;;;;;;;;5038145;28;20224;-79
2023/02/08 03:59:56;;;;;;;17.10;10.10;;;;;;;;;;5039194;28;20576;-79
2023/02/08 04:02:25;;;;;;;17.58;10.73;;;;;;;;;;5070921;28;20181;-79
2023/02/08 04:04:52;;;;;;;16.13;10.38;;;;;;;;;;5038366;28;20215;-78
2023/02/08 04:07:18;;;;;;;16.70;10.68;;;;;;;;;;5039280;28;20189;-79
2023/02/08 04:09:44;;;;;;;19.67;11.52;;;;;;;;;;5038261;28;20186;-79
2023/02/08 04:12:11;;;;;;;18.10;10.00;;;;;;;;;;5038280;28;20175;-79
2023/02/08 04:14:37;;;;;;;15.48;11.02;;;;;;;;;;5037947;28;20180;-79
2023/02/08 04:17:03;;;;;;;17.85;11.98;;;;;;;;;;5070341;28;20178;-78
2023/02/08 04:19:29;;;;;;;19.27;10.70;;;;;;;;;;5037687;28;20334;-79
2023/02/08 04:21:55;;;;;;;20.30;11.38;;;;;;;;;;5037316;28;20198;-79
2023/02/08 04:24:21;;;;;;;14.15;10.70;;;;;;;;;;5037956;28;20576;-79
2023/02/08 04:26:47;;;;;;;17.67;10.95;;;;;;;;;;5038419;28;20215;-79
2023/02/08 04:29:13;;;;;;;16.23;10.30;;;;;;;;;;5070059;28;20197;-79
2023/02/08 04:31:39;;;;;;;13.70;10.38;;;;;;;;;;5036714;28;20180;-78
2023/02/08 04:34:05;;;;;;;18.45;10.05;;;;;;;;;;5070119;28;20533;-79
2023/02/08 04:36:31;;;;;;;18.58;10.32;;;;;;;;;;5069103;28;20181;-80
2023/02/08 04:38:57;;;;;;;18.13;11.55;;;;;;;;;;5069891;28;20528;-78
2023/02/08 04:41:23;;;;;;;14.55;10.32;;;;;;;;;;5036525;28;20202;-78
2023/02/08 04:43:49;;;;;;;15.05;9.82;;;;;;;;;;5037326;28;20227;-79
2023/02/08 04:46:16;;;;;;;15.10;9.70;;;;;;;;;;5069250;28;20186;-79
2023/02/08 04:48:42;;;;;;;15.68;10.90;;;;;;;;;;5037477;28;20169;-78
2023/02/08 04:51:08;;;;;;;21.02;10.35;;;;;;;;;;5069922;28;20187;-78
2023/02/08 04:53:34;;;;;;;18.10;10.70;;;;;;;;;;5037161;28;20508;-79
2023/02/08 04:56:00;;;;;;;21.13;11.50;;;;;;;;;;5037521;28;20259;-78
2023/02/08 04:58:26;;;;;;;16.00;10.85;;;;;;;;;;5069395;28;20184;-78
2023/02/08 05:00:52;;;;;;;15.23;9.27;;;;;;;;;;5036874;28;20231;-79
2023/02/08 05:03:18;;;;;;;16.15;9.35;;;;;;;;;;5069486;28;20180;-79
2023/02/08 05:05:44;;;;;;;21.70;11.48;;;;;;;;;;5036572;28;20213;-78
2023/02/08 05:08:10;;;;;;;20.98;10.68;;;;;;;;;;5037521;28;20269;-79
2023/02/08 05:10:36;;;;;;;17.48;10.45;;;;;;;;;;5036846;28;20263;-78
2023/02/08 05:13:02;;;;;;;19.42;11.23;;;;;;;;;;5036016;28;20177;-79
2023/02/08 05:15:28;;;;;;;20.42;10.65;;;;;;;;;;5068722;28;20185;-79
2023/02/08 05:17:54;;;;;;;21.05;11.95;;;;;;;;;;5052309;28;20185;-79
2023/02/08 05:20:20;;;;;;;18.23;10.27;;;;;;;;;;5037208;28;20171;-79
2023/02/08 05:22:46;;;;;;;21.75;10.70;;;;;;;;;;5036869;28;20178;-79
2023/02/08 05:25:12;;;;;;;18.80;10.40;;;;;;;;;;5036413;28;20214;-79
2023/02/08 05:27:38;;;;;;;19.70;10.90;;;;;;;;;;5035364;28;20184;-79
2023/02/08 05:30:04;;;;;;;15.05;9.25;;;;;;;;;;5037000;28;20543;-79
2023/02/08 05:32:30;;;;;;;18.88;10.80;;;;;;;;;;5035682;28;20185;-79
2023/02/08 05:34:56;;;;;;;16.83;10.10;;;;;;;;;;5037093;28;20562;-79
2023/02/08 05:37:22;;;;;;;18.02;10.10;;;;;;;;;;5036916;28;20175;-79
2023/02/08 05:39:48;;;;;;;18.20;11.18;;;;;;;;;;5036423;28;20186;-79
2023/02/08 05:42:14;;;;;;;16.70;11.38;;;;;;;;;;5036769;28;20187;-79
2023/02/08 05:44:40;;;;;;;18.73;11.93;;;;;;;;;;5020753;28;20211;-79
2023/02/08 05:47:07;;;;;;;18.05;11.18;;;;;;;;;;5040058;28;20184;-78
2023/02/08 05:49:33;;;;;;;26.40;11.65;;;;;;;;;;5039746;28;20260;-79
2023/02/08 05:51:59;;;;;;;18.73;10.90;;;;;;;;;;5040142;28;20190;-79
2023/02/08 05:54:25;;;;;;;22.17;11.68;;;;;;;;;;5040645;28;20186;-79
2023/02/08 05:56:51;;;;;;;21.00;11.95;;;;;;;;;;5040718;28;20248;-79
2023/02/08 05:59:17;;;;;;;25.45;12.10;;;;;;;;;;5039710;28;20178;-79
2023/02/08 06:01:43;;;;;;;22.80;12.63;;;;;;;;;;5040479;28;20181;-79
2023/02/08 06:04:09;;;;;;;17.77;11.73;;;;;;;;;;5040976;28;20578;-79
2023/02/08 06:06:35;;;;;;;19.55;12.30;;;;;;;;;;5040765;28;20173;-78
2023/02/08 06:09:01;;;;;;;21.23;12.00;;;;;;;;;;5022483;28;20619;-78
2023/02/08 06:11:27;;;;;;;20.55;11.55;;;;;;;;;;5039358;28;20175;-78
2023/02/08 06:13:53;;;;;;;19.80;11.82;;;;;;;;;;5022924;28;20184;-78
2023/02/08 06:16:19;;;;;;;19.48;12.15;;;;;;;;;;5038661;28;20195;-78
2023/02/08 06:18:45;;;;;;;20.77;12.00;;;;;;;;;;5040235;28;20178;-79
2023/02/08 06:21:11;;;;;;;19.27;12.27;;;;;;;;;;5038820;28;20170;-79
2023/02/08 06:23:38;;;;;;;22.92;11.65;;;;;;;;;;5039840;28;20563;-84
2023/02/08 06:26:04;;;;;;;15.18;10.40;;;;;;;;;;5041313;28;20200;-78
2023/02/08 06:28:30;;;;;;;20.80;12.70;;;;;;;;;;5038624;28;20305;-78
2023/02/08 06:30:56;;;;;;;21.60;12.02;;;;;;;;;;5038555;28;20530;-78
2023/02/08 06:33:22;;;;;;;22.10;12.00;;;;;;;;;;5038811;28;20277;-79
2023/02/08 06:35:50;;;;;;;19.30;11.15;;;;;;;;;;5039094;28;20205;-79
2023/02/08 06:38:17;;;;;;;19.48;11.05;;;;;;;;;;5039884;28;20177;-78
2023/02/08 06:40:44;;;;;;;17.95;11.10;;;;;;;;;;5039428;28;20187;-79
2023/02/08 06:43:10;;;;;;;19.10;10.63;;;;;;;;;;5040046;28;20619;-79
2023/02/08 06:45:36;;;;;;;17.27;10.32;;;;;;;;;;5039582;28;20199;-78
2023/02/08 06:48:02;;;;;;;20.52;11.95;;;;;;;;;;5038970;28;20187;-78
2023/02/08 06:50:28;;;;;;;14.00;11.13;;;;;;;;;;5037780;28;20179;-79
2023/02/08 06:52:54;;;;;;;19.77;11.10;;;;;;;;;;5038225;28;20648;-79
2023/02/08 06:55:20;;;;;;;18.67;11.43;;;;;;;;;;5037341;28;20191;-79
2023/02/08 06:57:46;;;;;;;16.83;10.50;;;;;;;;;;5037473;28;20252;-79
2023/02/08 07:00:12;;;;;;;23.02;11.40;;;;;;;;;;5039070;28;20540;-79
2023/02/08 07:02:38;;;;;;;16.38;10.48;;;;;;;;;;5039419;28;20184;-78
2023/02/08 07:05:04;;;;;;;15.93;10.93;;;;;;;;;;5039163;28;20216;-78
2023/02/08 07:07:30;;;;;;;17.10;10.20;;;;;;;;;;5021799;28;20194;-78
2023/02/08 07:09:56;;;;;;;19.15;10.80;;;;;;;;;;5038061;28;20182;-79
2023/02/08 07:12:22;;;;;;;19.17;11.02;;;;;;;;;;5039265;28;20176;-78
2023/02/08 07:14:48;;;;;;;17.35;11.55;;;;;;;;;;5039440;28;20175;-78
2023/02/08 07:17:14;;;;;;;19.17;10.75;;;;;;;;;;5037477;28;20181;-78
2023/02/08 07:19:41;;;;;;;17.35;11.05;;;;;;;;;;5021988;28;20194;-82
2023/02/08 07:22:07;;;;;;;27.20;11.80;;;;;;;;;;5039060;28;20164;-78
2023/02/08 07:24:42;;;;;;;17.25;11.80;;;;;;;;;;5039083;28;20259;-78
2023/02/08 07:27:09;;;;;;;21.20;10.70;;;;;;;;;;5038001;28;20171;-79
2023/02/08 07:29:35;;;;;;;23.05;12.13;;;;;;;;;;5037629;28;20229;-78
2023/02/08 07:32:02;;;;;;;19.13;11.65;;;;;;;;;;5038966;28;20188;-78
2023/02/08 07:34:29;;;;;;;19.42;11.43;;;;;;;;;;5039083;28;20180;-78
2023/02/08 07:36:55;;;;;;;16.25;11.10;;;;;;;;;;5038257;28;20526;-79
2023/02/08 07:39:21;;;;;;;16.98;10.68;;;;;;;;;;5037919;28;20257;-78
2023/02/08 07:41:47;;;;;;;23.60;13.20;;;;;;;;;;5037002;28;20228;-78
2023/02/08 07:44:13;;;;;;;22.88;11.77;;;;;;;;;;5038415;28;20259;-78
2023/02/08 07:46:39;;;;;;;21.58;12.10;;;;;;;;;;5038361;28;20179;-79
2023/02/08 07:49:06;;;;;;;18.90;12.45;;;;;;;;;;5020777;28;20657;-78
2023/02/08 07:51:32;;;;;;;15.95;11.10;;;;;;;;;;5037386;28;20213;-79
2023/02/08 07:53:58;;;;;;;19.83;11.60;;;;;;;;;;5038510;28;20182;-79
2023/02/08 07:56:24;;;;;;;25.60;13.43;;;;;;;;;;5038780;28;20241;-79
2023/02/08 07:58:50;;;;;;;19.30;12.30;;;;;;;;;;5038557;28;20174;-78
2023/02/08 08:01:16;;;;;;;18.67;12.80;;;;;;;;;;5038542;28;20231;-79
2023/02/08 08:03:42;;;;;;;22.75;12.32;;;;;;;;;;5038672;28;20178;-78
2023/02/08 08:06:08;;;;;;;27.75;12.52;;;;;;;;;;5036679;28;20189;-78
2023/02/08 08:08:34;;;;;;;19.83;12.13;;;;;;;;;;5036798;28;20186;-79
2023/02/08 08:11:01;;;;;;;19.30;12.15;;;;;;;;;;5037031;28;20525;-78
2023/02/08 08:13:27;;;;;;;18.17;12.68;;;;;;;;;;5038421;28;20173;-79
2023/02/08 08:15:53;;;;;;;19.92;12.38;;;;;;;;;;5038174;28;20190;-78
2023/02/08 08:18:19;;;;;;;15.75;10.98;;;;;;;;;;5038448;28;20170;-78
2023/02/08 08:20:45;;;;;;;27.30;13.05;;;;;;;;;;5036834;28;20215;-85
2023/02/08 08:23:11;;;;;;;19.98;11.48;;;;;;;;;;5036340;28;20260;-78
2023/02/08 08:25:37;;;;;;;21.08;11.68;;;;;;;;;;5020628;28;20695;-78
2023/02/08 08:28:04;;;;;;;17.75;11.65;;;;;;;;;;5036830;28;20189;-78
2023/02/08 08:30:30;;;;;;;28.38;10.82;;;;;;;;;;5036570;28;20179;-78
2023/02/08 08:32:56;;;;;;;16.65;10.40;;;;;;;;;;5037727;28;20179;-78
2023/02/08 08:35:22;;;;;;;15.27;9.63;;;;;;;;;;5038437;28;20167;-79
2023/02/08 08:37:48;;;;;;;24.25;12.18;;;;;;;;;;5037833;28;20182;-79
2023/02/08 08:40:14;;;;;;;16.35;10.70;;;;;;;;;;5037952;28;20178;-78
2023/02/08 08:42:40;;;;;;;17.23;10.65;;;;;;;;;;5038297;28;20177;-78
2023/02/08 08:45:07;;;;;;;25.08;11.02;;;;;;;;;;5019569;28;20255;-78
2023/02/08 08:47:33;;;;;;;16.98;10.13;;;;;;;;;;5036468;28;20637;-78
2023/02/08 08:50:00;;;;;;;17.15;10.10;;;;;;;;;;5037963;28;20220;-78
2023/02/08 08:52:26;;;;;;;22.15;13.75;;;;;;;;;;5038051;28;20178;-78
2023/02/08 08:54:52;;;;;;;17.98;10.52;;;;;;;;;;5037126;28;20178;-78
2023/02/08 08:57:18;;;;;;;17.13;9.10;;;;;;;;;;5037798;28;20248;-78
2023/02/08 08:59:44;;;;;;;18.77;11.10;;;;;;;;;;5037999;28;20523;-78
2023/02/08 09:02:14;;;;;;;12.55;7.88;;;;;;;;;;5020256;28;20174;-78
2023/02/08 09:04:40;;;;;;;21.83;11.07;;;;;;;;;;5037774;28;20216;-78
2023/02/08 09:07:06;;;;;;;18.40;10.05;;;;;;;;;;5036370;28;20214;-78
2023/02/08 09:09:32;;;;;;;16.33;10.00;;;;;;;;;;5036888;28;20185;-77
2023/02/08 09:11:58;;;;;;;25.77;10.48;;;;;;;;;;5036059;28;20190;-78
2023/02/08 09:14:25;;;;;;;14.40;9.10;;;;;;;;;;5037765;28;20176;-78
2023/02/08 09:16:52;;;;;;;14.38;8.55;;;;;;;;;;5037514;28;20170;-77
2023/02/08 09:19:18;;;;;;;13.38;9.27;;;;;;;;;;5036927;28;20175;-78
2023/02/08 09:21:44;;;;;;;16.60;9.30;;;;;;;;;;5036822;28;20240;-78
2023/02/08 09:24:10;;;;;;;29.73;10.88;;;;;;;;;;5037016;28;20214;-78
2023/02/08 09:26:36;;;;;;;15.45;8.48;;;;;;;;;;5037239;28;20264;-78
2023/02/08 09:29:02;;;;;;;15.45;9.30;;;;;;;;;;5037472;28;20270;-78
2023/02/08 09:31:30;;;;;;;15.77;9.30;;;;;;;;;;5037838;28;20187;-77
2023/02/08 09:33:57;;;;;;;15.18;9.77;;;;;;;;;;5037508;28;20214;-77
2023/02/08 09:36:24;;;;;;;15.48;8.75;;;;;;;;;;5037552;28;20186;-78
2023/02/08 09:38:56;;;;;;;13.75;9.57;;;;;;;;;;5036332;28;20202;-78
2023/02/08 09:41:22;;;;;;;18.77;9.48;;;;;;;;;;5036322;28;20178;-78
2023/02/08 09:44:07;;;;;;;14.10;9.38;;;;;;;;;;5037546;28;20177;-78
2023/02/08 09:46:37;;;;;;;12.68;8.50;;;;;;;;;;5036958;28;20598;-77
2023/02/08 09:49:04;;;;;;;15.57;9.35;;;;;;;;;;5035798;28;20204;-78
2023/02/08 09:51:46;;;;;;;13.65;8.75;;;;;;;;;;5037160;28;20165;-78
2023/02/08 09:54:18;;;;;;;12.95;8.20;;;;;;;;;;5037047;28;20184;-77
2023/02/08 09:56:46;;;;;;;11.35;8.82;;;;;;;;;;5037060;28;20218;-77
2023/02/08 09:59:14;;;;;;;16.58;9.63;;;;;;;;;;5037228;28;20196;-79
2023/02/08 10:01:40;;;;;;;16.95;8.30;;;;;;;;;;5037024;28;20166;-78
2023/02/08 10:04:25;;;;;;;13.05;8.50;;;;;;;;;;5036722;28;20209;-78
2023/02/08 10:06:51;;;;;;;11.65;7.32;;;;;;;;;;5037055;28;20525;-79
2023/02/08 10:09:20;;;;;;;14.40;8.52;;;;;;;;;;5036396;28;20213;-78
2023/02/08 10:11:53;;;;;;;17.10;8.68;;;;;;;;;;5034836;28;20177;-77
2023/02/08 10:14:19;;;;;;;12.07;8.15;;;;;;;;;;5036616;28;20166;-78
2023/02/08 10:16:55;;;;;;;13.18;8.68;;;;;;;;;;5036379;28;20189;-78
2023/02/08 10:19:29;;;;;;;14.15;8.60;;;;;;;;;;5036535;28;20601;-77
2023/02/08 10:22:05;;;;;;;12.70;7.40;;;;;;;;;;5036405;28;20157;-78
2023/02/08 10:24:38;;;;;;;12.65;8.98;;;;;;;;;;5035210;28;20236;-78
2023/02/08 10:27:30;;;;;;;17.42;8.02;;;;;;;;;;5035940;28;20178;-78
2023/02/08 10:30:05;;;;;;;16.27;8.30;;;;;;;;;;5033228;28;20233;-77
2023/02/08 10:32:34;;;;;;;11.98;8.00;;;;;;;;;;5040185;28;20484;-77
2023/02/08 10:35:06;;;;;;;13.73;8.20;;;;;;;;;;5039166;28;20178;-78
2023/02/08 10:37:33;;;;;;;14.77;8.43;;;;;;;;;;5039896;28;20170;-78
2023/02/08 10:40:22;;;;;;;10.88;8.13;;;;;;;;;;5039327;28;20237;-78
2023/02/08 10:42:52;;;;;;;11.80;8.30;;;;;;;;;;5038981;28;20178;-78
2023/02/08 10:45:24;;;;;;;14.52;8.82;;;;;;;;;;5039061;28;20190;-77
2023/02/08 10:47:53;;;;;;;11.50;7.50;;;;;;;;;;5038093;28;20178;-78
2023/02/08 10:50:22;;;;;;;10.47;7.77;;;;;;;;;;5038247;28;20410;-78
2023/02/08 10:52:49;;;;;;;11.38;8.15;;;;;;;;;;5038833;28;20432;-78
2023/02/08 10:55:16;;;;;;;11.13;7.30;;;;;;;;;;5037510;28;20186;-77
2023/02/08 10:57:43;;;;;;;10.00;8.20;;;;;;;;;;5038298;28;20456;-77
2023/02/08 11:00:18;;;;;;;13.17;8.47;;;;;;;;;;5036790;28;20435;-77
2023/02/08 11:02:45;;;;;;;11.33;7.27;;;;;;;;;;5038532;28;20912;-77
2023/02/08 11:05:13;;;;;;;11.67;7.70;;;;;;;;;;5038635;28;20472;-77
2023/02/08 11:07:40;;;;;;;11.07;7.40;;;;;;;;;;5038775;28;20955;-77
2023/02/08 11:10:18;;;;;;;7.77;6.20;;;;;;;;;;5036810;28;20921;-77
2023/02/08 11:13:13;;;;;;;8.60;6.90;;;;;;;;;;5038877;28;20430;-77
2023/02/08 11:15:45;;;;;;;9.20;6.90;;;;;;;;;;5025655;28;20439;-77
2023/02/08 11:18:37;;;;;;;10.40;7.30;;;;;;;;;;5038645;28;20412;-77
2023/02/08 11:21:09;;;;;;;9.90;7.10;;;;;;;;;;5033260;28;20417;-77
2023/02/08 11:23:40;;;;;;;9.00;6.13;;;;;;;;;;5039055;28;20405;-78
2023/02/08 11:26:18;;;;;;;11.10;6.67;;;;;;;;;;5038038;28;20425;-78
2023/02/08 11:28:44;;;;;;;11.63;7.10;;;;;;;;;;5038224;28;20421;-77
2023/02/08 11:31:18;;;;;;;7.67;5.87;;;;;;;;;;5036690;28;20760;-77
2023/02/08 11:34:04;;;;;;;15.90;6.10;;;;;;;;;;5038222;28;20462;-77
2023/02/08 11:36:31;;;;;;;10.97;7.57;;;;;;;;;;5038252;28;20507;-76
2023/02/08 11:39:00;;;;;;;12.97;7.30;;;;;;;;;;5037905;28;20412;-77
2023/02/08 11:41:26;;;;;;;14.40;6.70;;;;;;;;;;5037513;28;20753;-77
2023/02/08 11:44:02;;;;;;;8.23;5.70;;;;;;;;;;5037828;28;20424;-77
2023/02/08 11:46:30;;;;;;;11.47;7.50;;;;;;;;;;5038223;28;20776;-77
2023/02/08 11:48:56;;;;;;;11.20;6.03;;;;;;;;;;5037834;28;20885;-77
2023/02/08 11:51:27;;;;;;;8.80;6.00;;;;;;;;;;5036217;28;20913;-77
2023/02/08 11:53:53;;;;;;;8.57;5.63;;;;;;;;;;5037691;28;20393;-76
2023/02/08 11:56:23;;;;;;;11.17;6.50;;;;;;;;;;5037288;28;20457;-76
2023/02/08 11:59:01;;;;;;;9.63;5.97;;;;;;;;;;5037427;28;20486;-77
2023/02/08 12:01:37;;;;;;;8.43;5.97;;;;;;;;;;5037509;28;20397;-76
2023/02/08 12:04:05;;;;;;;9.37;5.60;;;;;;;;;;5037092;28;20510;-77
2023/02/08 12:06:36;;;;;;;9.53;6.33;;;;;;;;;;5037446;28;20563;-77
2023/02/08 12:09:11;;;;;;;8.60;6.07;;;;;;;;;;5037290;28;20409;-77
2023/02/08 12:11:40;;;;;;;11.00;6.60;;;;;;;;;;5037310;28;20730;-77
2023/02/08 12:14:10;;;;;;;16.33;6.70;;;;;;;;;;5035990;28;20405;-77
2023/02/08 12:16:36;;;;;;;8.53;5.53;;;;;;;;;;5036872;28;20405;-77
2023/02/08 12:19:20;;;;;;;6.43;4.90;;;;;;;;;;5036951;28;20787;-78
2023/02/08 12:21:48;;;;;;;8.00;5.17;;;;;;;;;;5037098;28;20761;-77
2023/02/08 12:24:17;;;;;;;4.67;4.07;;;;;;;;;;5036489;28;20623;-77
2023/02/08 12:26:43;;;;;;;7.73;5.33;;;;;;;;;;5036780;28;20420;-77
2023/02/08 12:29:18;;;;;;;7.37;5.00;;;;;;;;;;5036386;28;20429;-77
2023/02/08 12:31:53;;;;;;;8.50;6.03;;;;;;;;;;5036728;28;20504;-77
2023/02/08 12:34:25;;;;;;;8.20;4.00;;;;;;;;;;5036609;28;20409;-78
2023/02/08 12:40:48;;;;;;;8.10;5.80;;;;;;;;;;5034982;28;20423;-77
2023/02/08 12:42:49;;;;;;;6.83;4.70;;;;;;;;;;5036444;28;20446;-77
2023/02/08 12:45:41;;;;;;;5.90;4.30;;;;;;;;;;5036690;28;20437;-76
2023/02/08 12:48:07;;;;;;;5.20;4.20;;;;;;;;;;5033260;28;20425;-77
2023/02/08 12:50:38;;;;;;;4.13;3.40;;;;;;;;;;5036769;28;20409;-77
2023/02/08 12:53:14;;;;;;;6.70;4.57;;;;;;;;;;5036412;28;20382;-77
2023/02/08 12:55:41;;;;;;;6.20;5.30;;;;;;;;;;5036066;28;20417;-77
2023/02/08 12:58:21;;;;;;;5.13;4.23;;;;;;;;;;5035831;28;20746;-77
2023/02/08 13:00:48;;;;;;;5.13;3.70;;;;;;;;;;5036624;28;20464;-77
2023/02/08 13:03:31;;;;;;;5.17;4.27;;;;;;;;;;5035887;28;20480;-77
2023/02/08 13:05:58;;;;;;;7.67;4.80;;;;;;;;;;5035625;28;20514;-77
2023/02/08 13:08:30;;;;;;;5.53;4.20;;;;;;;;;;5035689;28;20405;-77
2023/02/08 13:10:58;;;;;;;6.30;3.93;;;;;;;;;;5034529;28;20427;-77
2023/02/08 13:13:44;;;;;;;5.40;4.43;;;;;;;;;;5035895;28;20407;-77
2023/02/08 13:16:15;;;;;;;5.90;4.17;;;;;;;;;;5036022;28;20413;-77
2023/02/08 13:18:48;;;;;;;6.03;3.70;;;;;;;;;;5035193;28;20492;-77
2023/02/08 13:21:20;;;;;;;6.30;5.10;;;;;;;;;;5035160;28;20389;-77
2023/02/08 13:23:47;;;;;;;11.20;4.97;;;;;;;;;;5035516;28;20847;-77
2023/02/08 13:26:25;;;;;;;6.73;4.63;;;;;;;;;;5035601;28;20424;-77
2023/02/08 13:28:52;;;;;;;5.03;3.90;;;;;;;;;;5035504;28;20503;-76
2023/02/08 13:31:24;;;;;;;9.50;4.80;;;;;;;;;;5034166;28;20421;-77
2023/02/08 13:34:00;;;;;;;6.50;4.33;;;;;;;;;;5035592;28;20436;-77
2023/02/08 13:36:29;;;;;;;6.77;4.60;;;;;;;;;;5035166;28;20807;-77
2023/02/08 13:38:57;;;;;;;8.53;5.10;;;;;;;;;;5034311;28;20460;-77
2023/02/08 13:41:24;;;;;;;5.80;4.30;;;;;;;;;;5034857;28;21263;-77
2023/02/08 13:43:50;;;;;;;5.67;4.60;;;;;;;;;;5034889;28;20906;-77
2023/02/08 13:46:17;;;;;;;5.53;4.23;;;;;;;;;;5034559;28;20423;-78
2023/02/08 13:49:02;;;;;;;6.50;4.10;;;;;;;;;;5035091;28;20413;-77
2023/02/08 13:51:31;;;;;;;5.70;4.03;;;;;;;;;;5034915;28;20393;-77
2023/02/08 13:53:57;;;;;;;7.67;4.30;;;;;;;;;;5033428;28;21023;-78
2023/02/08 13:56:40;;;;;;;13.13;4.87;;;;;;;;;;5034153;28;20469;-77
2023/02/08 13:59:25;;;;;;;8.20;5.10;;;;;;;;;;5034517;28;20799;-78
2023/02/08 14:02:10;;;;;;;4.50;4.00;;;;;;;;;;5034386;28;20419;-77
2023/02/08 14:04:37;;;;;;;5.33;4.07;;;;;;;;;;5034905;28;20452;-77
2023/02/08 14:07:05;;;;;;;5.37;4.43;;;;;;;;;;5037647;28;20432;-76
2023/02/08 14:09:47;;;;;;;8.00;5.03;;;;;;;;;;5038885;28;20412;-77
2023/02/08 14:12:21;;;;;;;7.27;4.00;;;;;;;;;;5038642;28;20440;-77
2023/02/08 14:15:04;;;;;;;7.43;4.37;;;;;;;;;;5038630;28;20392;-77
2023/02/08 14:17:30;;;;;;;7.50;4.83;;;;;;;;;;5038717;28;20393;-77
2023/02/08 14:19:58;;;;;;;5.13;4.40;;;;;;;;;;5036986;28;20902;-77
2023/02/08 14:22:25;;;;;;;10.73;4.30;;;;;;;;;;5037848;28;20446;-76
2023/02/08 14:25:05;;;;;;;4.60;4.10;;;;;;;;;;5036642;28;20460;-77
2023/02/08 14:27:43;;;;;;;5.60;4.20;;;;;;;;;;5037311;28;20440;-77
2023/02/08 14:30:09;;;;;;;4.90;4.20;;;;;;;;;;5037563;28;20761;-77
2023/02/08 14:32:37;;;;;;;6.50;4.00;;;;;;;;;;5037835;28;20451;-77
2023/02/08 14:35:08;;;;;;;5.93;4.10;;;;;;;;;;5037778;28;20401;-76
2023/02/08 14:37:36;;;;;;;6.43;4.10;;;;;;;;;;5037368;28;20467;-76
2023/02/08 14:40:20;;;;;;;4.80;4.03;;;;;;;;;;5037618;28;20412;-76
2023/02/08 14:42:54;;;;;;;6.70;4.20;;;;;;;;;;5037400;28;20408;-76
2023/02/08 14:45:33;;;;;;;6.50;4.10;;;;;;;;;;5036731;28;20452;-77